createdAt,value
2023-03-29T00:02:09.623Z,101857.81
2023-03-29T00:04:36.914Z,101846.97
2023-03-29T00:07:04.546Z,101844.28
2023-03-29T00:09:33.678Z,101844.41
2023-03-29T00:12:01.708Z,101839.72
2023-03-29T00:14:31.177Z,101842.38
2023-03-29T00:16:59.234Z,101834.72
2023-03-29T00:19:28.552Z,101828.41
2023-03-29T00:21:55.727Z,101827.19
2023-03-29T00:24:24.154Z,101823.88
2023-03-29T00:26:51.331Z,101815.28
2023-03-29T00:29:18.076Z,101812.47
2023-03-29T00:31:51.454Z,101807.94
2023-03-29T00:34:18.412Z,101802.00
2023-03-29T00:36:45.275Z,101793.44
2023-03-29T00:39:12.442Z,101790.19
2023-03-29T00:41:39.457Z,101779.06
2023-03-29T00:44:06.794Z,101772.31
2023-03-29T00:46:35.224Z,101768.75
2023-03-29T00:49:09.005Z,101763.00
2023-03-29T00:51:39.799Z,101763.91
2023-03-29T00:54:09.575Z,101754.72
2023-03-29T00:56:40.657Z,101762.63
2023-03-29T00:59:14.007Z,101762.31
2023-03-29T01:01:48.626Z,101754.34
2023-03-29T01:04:32.848Z,101756.03
2023-03-29T01:07:02.887Z,101747.53
2023-03-29T01:09:33.615Z,101739.66
2023-03-29T01:12:08.332Z,101741.88
2023-03-29T01:14:41.999Z,101739.31
2023-03-29T01:17:08.940Z,101737.25
2023-03-29T01:19:43.563Z,101742.25
2023-03-29T01:22:22.720Z,101723.72
2023-03-29T01:25:01.196Z,101723.88
2023-03-29T01:27:48.052Z,101718.47
2023-03-29T01:30:23.749Z,101715.66
2023-03-29T01:32:59.484Z,101710.38
2023-03-29T01:35:37.134Z,101708.34
2023-03-29T01:38:13.807Z,101711.84
2023-03-29T01:40:40.946Z,101706.72
2023-03-29T01:43:37.026Z,101706.19
2023-03-29T01:46:10.556Z,101692.84
2023-03-29T01:48:48.124Z,101687.91
2023-03-29T01:51:45.547Z,101684.50
2023-03-29T01:54:28.522Z,101674.50
2023-03-29T01:56:57.496Z,101678.94
2023-03-29T01:59:29.356Z,101677.00
2023-03-29T02:02:00.334Z,101675.72
2023-03-29T02:04:38.777Z,101637.09
2023-03-29T02:07:09.095Z,101660.44
2023-03-29T02:09:38.925Z,101663.22
2023-03-29T02:12:08.210Z,101666.69
2023-03-29T02:14:35.780Z,101655.09
2023-03-29T02:17:26.838Z,101664.47
2023-03-29T02:20:15.400Z,101658.97
2023-03-29T02:22:57.231Z,101647.78
2023-03-29T02:25:24.816Z,101637.09
2023-03-29T02:27:52.925Z,101643.75
2023-03-29T02:30:21.220Z,101641.06
2023-03-29T02:32:54.192Z,101628.38
2023-03-29T02:35:34.475Z,101631.13
2023-03-29T02:38:08.088Z,101622.22
2023-03-29T02:40:36.446Z,101621.13
2023-03-29T02:43:04.783Z,101622.69
2023-03-29T02:45:32.860Z,101616.84
2023-03-29T02:48:05.435Z,101612.03
2023-03-29T02:50:38.176Z,101603.06
2023-03-29T02:53:13.414Z,101602.34
2023-03-29T02:55:40.323Z,101608.19
2023-03-29T02:58:10.686Z,101605.19
2023-03-29T03:00:42.299Z,101605.97
2023-03-29T03:03:10.544Z,101608.81
2023-03-29T03:05:38.474Z,101599.94
2023-03-29T03:08:07.520Z,101601.22
2023-03-29T03:10:35.635Z,101602.53
2023-03-29T03:13:03.099Z,101595.72
2023-03-29T03:15:31.326Z,101584.72
2023-03-29T03:17:58.214Z,101578.38
2023-03-29T03:20:25.050Z,101585.75
2023-03-29T03:22:51.955Z,101574.66
2023-03-29T03:25:24.853Z,101570.53
2023-03-29T03:27:51.732Z,101562.44
2023-03-29T03:30:19.424Z,101560.81
2023-03-29T03:32:46.598Z,101567.53
2023-03-29T03:35:13.948Z,101555.47
2023-03-29T03:37:41.039Z,101554.22
2023-03-29T03:40:09.389Z,101556.47
2023-03-29T03:42:36.371Z,101548.97
2023-03-29T03:45:03.413Z,101554.78
2023-03-29T03:47:31.048Z,101547.16
2023-03-29T03:49:58.491Z,101561.00
2023-03-29T03:52:25.537Z,101563.94
2023-03-29T03:54:52.462Z,101559.78
2023-03-29T03:57:19.279Z,101552.00
2023-03-29T03:59:46.117Z,101558.59
2023-03-29T04:02:12.951Z,101556.63
2023-03-29T04:04:41.163Z,101550.81
2023-03-29T04:07:09.819Z,101551.91
2023-03-29T04:09:37.881Z,101546.16
2023-03-29T04:12:05.120Z,101539.69
2023-03-29T04:14:32.764Z,101543.28
2023-03-29T04:16:59.674Z,101546.13
2023-03-29T04:19:26.602Z,101539.88
2023-03-29T04:21:53.713Z,101536.00
2023-03-29T04:24:20.751Z,101537.03
2023-03-29T04:26:47.990Z,101513.75
2023-03-29T04:29:15.052Z,101536.50
2023-03-29T04:31:42.262Z,101536.75
2023-03-29T04:34:09.316Z,101529.34
2023-03-29T04:36:36.454Z,101535.91
2023-03-29T04:39:04.637Z,101529.00
2023-03-29T04:41:32.904Z,101524.06
2023-03-29T04:43:59.878Z,101522.53
2023-03-29T04:46:26.982Z,101537.31
2023-03-29T04:48:54.523Z,101526.88
2023-03-29T04:51:22.966Z,101522.44
2023-03-29T04:53:50.829Z,101520.41
2023-03-29T04:56:17.856Z,101523.63
2023-03-29T04:58:44.776Z,101518.84
2023-03-29T05:01:11.949Z,101520.47
2023-03-29T05:03:38.865Z,101519.56
2023-03-29T05:06:08.158Z,101516.00
2023-03-29T05:08:39.421Z,101516.28
2023-03-29T05:11:07.864Z,101511.41
2023-03-29T05:13:35.620Z,101514.50
2023-03-29T05:16:07.219Z,101508.44
2023-03-29T05:18:34.006Z,101509.28
2023-03-29T05:21:00.991Z,101511.91
2023-03-29T05:23:29.336Z,101519.09
2023-03-29T05:25:56.617Z,101515.53
2023-03-29T05:28:23.653Z,101514.75
2023-03-29T05:31:00.841Z,101517.88
2023-03-29T05:33:28.991Z,101510.16
2023-03-29T05:36:03.739Z,101504.91
2023-03-29T05:38:30.918Z,101488.59
2023-03-29T05:41:01.265Z,101492.50
2023-03-29T05:43:29.014Z,101491.16
2023-03-29T05:45:56.936Z,101479.38
2023-03-29T05:48:24.149Z,101485.16
2023-03-29T05:50:52.573Z,101482.63
2023-03-29T05:53:22.564Z,101486.81
2023-03-29T05:55:49.552Z,101483.28
2023-03-29T05:58:18.324Z,101480.81
2023-03-29T06:00:45.578Z,101478.66
2023-03-29T06:03:21.956Z,101472.63
2023-03-29T06:05:59.603Z,101473.44
2023-03-29T06:08:28.075Z,101477.53
2023-03-29T06:11:04.905Z,101483.44
2023-03-29T06:13:34.258Z,101487.13
2023-03-29T06:16:01.753Z,101497.34
2023-03-29T06:18:29.517Z,101499.34
2023-03-29T06:20:56.282Z,101486.13
2023-03-29T06:23:23.578Z,101492.50
2023-03-29T06:25:51.660Z,101491.94
2023-03-29T06:28:20.283Z,101490.59
2023-03-29T06:30:49.212Z,101494.75
2023-03-29T06:33:20.700Z,101489.19
2023-03-29T06:35:49.679Z,101478.38
2023-03-29T06:38:17.072Z,101478.69
2023-03-29T06:40:45.024Z,101460.25
2023-03-29T06:43:12.130Z,101455.59
2023-03-29T06:45:40.048Z,101464.44
2023-03-29T06:48:09.703Z,101458.34
2023-03-29T06:50:37.487Z,101477.44
2023-03-29T06:53:04.643Z,101474.66
2023-03-29T06:55:32.149Z,101470.50
2023-03-29T06:58:02.160Z,101469.69
2023-03-29T07:00:30.055Z,101471.53
2023-03-29T07:02:58.704Z,101478.19
2023-03-29T07:05:27.541Z,101481.22
2023-03-29T07:08:00.433Z,101480.41
2023-03-29T07:10:32.965Z,101482.94
2023-03-29T07:13:01.373Z,101475.13
2023-03-29T07:15:29.473Z,101477.06
2023-03-29T07:17:58.025Z,101473.31
2023-03-29T07:20:27.291Z,101467.59
2023-03-29T07:22:54.116Z,101468.66
2023-03-29T07:25:22.924Z,101466.41
2023-03-29T07:27:50.802Z,101475.13
2023-03-29T07:30:21.214Z,101465.59
2023-03-29T07:32:48.360Z,101470.53
2023-03-29T07:35:15.422Z,101463.47
2023-03-29T07:37:44.645Z,101462.00
2023-03-29T07:40:18.905Z,101461.06
2023-03-29T07:42:46.843Z,101464.94
2023-03-29T07:45:16.649Z,101458.28
2023-03-29T07:47:44.971Z,101464.13
2023-03-29T07:50:12.449Z,101426.50
2023-03-29T07:52:39.876Z,101458.59
2023-03-29T07:55:08.517Z,101459.31
2023-03-29T07:57:36.017Z,101467.81
2023-03-29T08:00:11.863Z,101461.22
2023-03-29T08:02:39.508Z,101459.69
2023-03-29T08:05:07.223Z,101459.16
2023-03-29T08:07:34.010Z,101455.78
2023-03-29T08:10:00.931Z,101447.56
2023-03-29T08:12:27.849Z,101448.81
2023-03-29T08:14:54.720Z,101441.78
2023-03-29T08:17:21.510Z,101452.91
2023-03-29T08:19:50.950Z,101450.50
2023-03-29T08:22:18.357Z,101446.16
2023-03-29T08:24:45.289Z,101443.06
2023-03-29T08:27:12.094Z,101448.78
2023-03-29T08:29:39.330Z,101444.56
2023-03-29T08:32:07.336Z,101432.88
2023-03-29T08:34:35.725Z,101440.44
2023-03-29T08:37:04.661Z,101446.38
2023-03-29T08:39:32.744Z,101447.97
2023-03-29T08:42:14.782Z,101441.03
2023-03-29T08:44:56.806Z,101439.53
2023-03-29T08:47:36.098Z,101429.59
2023-03-29T08:50:04.632Z,101438.88
2023-03-29T08:52:38.304Z,101422.63
2023-03-29T08:55:19.841Z,101422.09
2023-03-29T08:57:50.041Z,101418.81
2023-03-29T09:00:38.362Z,101425.13
2023-03-29T09:03:43.585Z,101427.97
2023-03-29T09:06:15.305Z,101431.97
2023-03-29T09:08:49.467Z,101428.19
2023-03-29T09:11:32.871Z,101432.72
2023-03-29T09:14:33.881Z,101432.69
2023-03-29T09:17:15.704Z,101426.03
2023-03-29T09:20:07.063Z,101420.88
2023-03-29T09:22:59.765Z,101423.91
2023-03-29T09:25:53.341Z,101425.19
2023-03-29T09:28:47.912Z,101428.94
2023-03-29T09:31:23.034Z,101424.69
2023-03-29T09:33:58.185Z,101412.59
2023-03-29T09:36:47.940Z,101416.16
2023-03-29T09:39:16.697Z,101419.25
2023-03-29T09:42:09.589Z,101416.31
2023-03-29T09:44:42.541Z,101404.97
2023-03-29T09:47:19.476Z,101390.00
2023-03-29T09:49:52.627Z,101392.25
2023-03-29T09:52:21.180Z,101395.91
2023-03-29T09:54:48.328Z,101393.19
2023-03-29T09:57:19.906Z,101393.72
2023-03-29T09:59:51.313Z,101389.53
2023-03-29T10:02:21.278Z,101379.19
2023-03-29T10:05:01.028Z,101374.63
2023-03-29T10:07:40.178Z,101377.88
2023-03-29T10:10:11.362Z,101380.56
2023-03-29T10:12:38.404Z,101379.75
2023-03-29T10:15:08.556Z,101379.59
2023-03-29T10:17:40.791Z,101377.81
2023-03-29T10:20:14.592Z,101379.81
2023-03-29T10:22:48.702Z,101381.13
2023-03-29T10:25:18.183Z,101380.56
2023-03-29T10:27:48.069Z,101377.31
2023-03-29T10:30:22.824Z,101375.63
2023-03-29T10:32:58.257Z,101376.09
2023-03-29T10:35:38.519Z,101375.47
2023-03-29T10:38:10.771Z,101372.28
2023-03-29T10:40:44.233Z,101331.53
2023-03-29T10:43:17.561Z,101372.59
2023-03-29T10:45:48.335Z,101384.91
2023-03-29T10:48:17.794Z,101385.81
2023-03-29T10:50:53.122Z,101385.06
2023-03-29T10:53:27.956Z,101382.38
2023-03-29T10:56:19.285Z,101385.66
2023-03-29T10:59:07.554Z,101372.84
2023-03-29T11:01:51.737Z,101367.59
2023-03-29T11:04:34.685Z,101368.53
2023-03-29T11:07:22.806Z,101359.16
2023-03-29T11:09:59.625Z,101355.31
2023-03-29T11:12:46.626Z,101363.28
2023-03-29T11:15:43.029Z,101365.53
2023-03-29T11:18:35.029Z,101376.06
2023-03-29T11:21:21.388Z,101372.03
2023-03-29T11:24:01.087Z,101371.72
2023-03-29T11:26:37.706Z,101361.91
2023-03-29T11:29:16.425Z,101362.91
2023-03-29T11:32:02.595Z,101370.28
2023-03-29T11:34:51.115Z,101368.31
2023-03-29T11:37:28.834Z,101377.41
2023-03-29T11:40:17.699Z,101381.22
2023-03-29T11:42:48.620Z,101370.69
2023-03-29T11:45:28.794Z,101364.69
2023-03-29T11:47:59.266Z,101368.22
2023-03-29T11:50:36.615Z,101365.47
2023-03-29T11:53:14.853Z,101367.88
2023-03-29T11:55:42.950Z,101368.00
2023-03-29T11:58:19.997Z,101365.56
2023-03-29T12:01:04.247Z,101367.81
2023-03-29T12:03:40.413Z,101362.34
2023-03-29T12:06:12.024Z,101345.06
2023-03-29T12:08:46.516Z,101363.41
2023-03-29T12:11:23.042Z,101363.06
2023-03-29T12:14:05.273Z,101358.78
2023-03-29T12:16:38.123Z,101356.22
2023-03-29T12:19:15.316Z,101337.41
2023-03-29T12:21:44.924Z,101354.34
2023-03-29T12:24:14.130Z,101356.06
2023-03-29T12:27:01.661Z,101355.22
2023-03-29T12:29:40.333Z,101346.22
2023-03-29T12:32:33.194Z,101348.88
2023-03-29T12:35:18.278Z,101346.44
2023-03-29T12:38:08.467Z,101343.84
2023-03-29T12:40:47.602Z,101346.13
2023-03-29T12:43:38.078Z,101338.69
2023-03-29T12:46:29.973Z,101331.66
2023-03-29T12:49:05.982Z,101331.00
2023-03-29T12:51:35.171Z,101327.16
2023-03-29T12:54:16.809Z,101332.03
2023-03-29T12:56:53.470Z,101331.03
2023-03-29T12:59:23.021Z,101343.09
2023-03-29T13:02:14.923Z,101339.56
2023-03-29T13:04:55.818Z,101337.19
2023-03-29T13:07:22.857Z,101333.25
2023-03-29T13:09:56.945Z,101328.72
2023-03-29T13:12:46.107Z,101336.47
2023-03-29T13:15:16.928Z,101330.47
2023-03-29T13:18:25.876Z,101321.97
2023-03-29T13:21:15.200Z,101323.72
2023-03-29T13:23:57.861Z,101320.72
2023-03-29T13:26:28.705Z,101310.97
2023-03-29T13:28:57.880Z,101307.53
2023-03-29T13:31:35.247Z,101310.03
2023-03-29T13:34:37.219Z,101306.84
2023-03-29T13:37:40.249Z,101304.06
2023-03-29T13:40:32.123Z,101298.81
2023-03-29T13:43:11.229Z,101299.31
2023-03-29T13:45:39.118Z,101287.94
2023-03-29T13:48:30.199Z,101291.31
2023-03-29T13:51:15.980Z,101286.69
2023-03-29T13:54:03.905Z,101293.47
2023-03-29T13:56:55.206Z,101288.22
2023-03-29T13:59:43.377Z,101292.09
2023-03-29T14:02:42.408Z,101287.72
2023-03-29T14:05:16.731Z,101276.91
2023-03-29T14:07:49.785Z,101260.16
2023-03-29T14:10:23.181Z,101252.66
2023-03-29T14:12:50.491Z,101260.38
2023-03-29T14:15:24.344Z,101266.94
2023-03-29T14:18:00.246Z,101267.31
2023-03-29T14:20:28.824Z,101270.44
2023-03-29T14:22:55.726Z,101268.94
2023-03-29T14:25:23.183Z,101263.03
2023-03-29T14:27:50.244Z,101279.13
2023-03-29T14:30:27.781Z,101266.66
2023-03-29T14:32:57.059Z,101272.56
2023-03-29T14:35:33.501Z,101270.81
2023-03-29T14:38:01.796Z,101268.25
2023-03-29T14:40:31.030Z,101266.44
2023-03-29T14:43:00.452Z,101268.19
2023-03-29T14:45:30.298Z,101261.94
2023-03-29T14:47:58.151Z,101260.25
2023-03-29T14:50:30.391Z,101251.28
2023-03-29T14:52:58.937Z,101242.59
2023-03-29T14:55:27.512Z,101225.38
2023-03-29T14:57:55.698Z,101246.31
2023-03-29T15:00:39.904Z,101237.03
2023-03-29T15:03:14.486Z,101222.72
2023-03-29T15:05:44.380Z,101231.28
2023-03-29T15:08:18.054Z,101225.50
2023-03-29T15:10:45.462Z,101231.56
2023-03-29T15:13:18.725Z,101218.25
2023-03-29T15:15:46.502Z,101232.75
2023-03-29T15:18:16.952Z,101214.19
2023-03-29T15:20:45.245Z,101210.72
2023-03-29T15:23:15.233Z,101212.81
2023-03-29T15:26:16.164Z,101209.78
2023-03-29T15:28:55.883Z,101210.47
2023-03-29T15:31:32.548Z,101210.41
2023-03-29T15:34:09.391Z,101203.66
2023-03-29T15:36:42.619Z,101206.75
2023-03-29T15:39:14.232Z,101193.78
2023-03-29T15:41:46.035Z,101200.34
2023-03-29T15:44:15.847Z,101189.97
2023-03-29T15:46:43.046Z,101193.94
2023-03-29T15:49:14.197Z,101192.44
2023-03-29T15:51:41.480Z,101179.16
2023-03-29T15:54:09.437Z,101194.41
2023-03-29T15:56:46.838Z,101182.19
2023-03-29T15:59:13.752Z,101173.75
2023-03-29T16:01:42.026Z,101170.00
2023-03-29T16:04:17.909Z,101171.56
2023-03-29T16:06:48.803Z,101162.63
2023-03-29T16:09:17.357Z,101157.69
2023-03-29T16:11:45.921Z,101165.25
2023-03-29T16:14:34.016Z,101157.50
2023-03-29T16:17:04.982Z,101166.22
2023-03-29T16:19:33.317Z,101160.75
2023-03-29T16:22:03.321Z,101165.72
2023-03-29T16:24:32.283Z,101160.34
2023-03-29T16:27:01.482Z,101162.13
2023-03-29T16:29:29.084Z,101150.88
2023-03-29T16:31:56.140Z,101163.41
2023-03-29T16:34:23.565Z,101161.13
2023-03-29T16:36:50.963Z,101147.22
2023-03-29T16:39:18.511Z,101167.78
2023-03-29T16:41:48.615Z,101157.22
2023-03-29T16:44:23.558Z,101150.78
2023-03-29T16:46:54.124Z,101137.28
2023-03-29T16:49:21.798Z,101164.28
2023-03-29T16:51:48.920Z,101158.59
2023-03-29T16:54:20.212Z,101140.88
2023-03-29T16:56:47.346Z,101165.72
2023-03-29T16:59:14.327Z,101172.44
2023-03-29T17:01:41.761Z,101161.53
2023-03-29T17:04:09.259Z,101156.69
2023-03-29T17:06:36.252Z,101142.94
2023-03-29T17:09:03.833Z,101163.63
2023-03-29T17:11:30.951Z,101163.25
2023-03-29T17:13:57.883Z,101157.47
2023-03-29T17:16:25.142Z,101152.50
2023-03-29T17:18:52.093Z,101152.16
2023-03-29T17:21:19.406Z,101150.53
2023-03-29T17:23:46.634Z,101145.91
2023-03-29T17:26:13.670Z,101150.59
2023-03-29T17:28:40.509Z,101148.25
2023-03-29T17:31:08.106Z,101147.44
2023-03-29T17:33:36.498Z,101151.63
2023-03-29T17:36:05.342Z,101152.56
2023-03-29T17:38:34.259Z,101147.81
2023-03-29T17:41:03.082Z,101149.66
2023-03-29T17:43:30.283Z,101146.81
2023-03-29T17:45:57.068Z,101136.47
2023-03-29T17:48:24.733Z,101138.25
2023-03-29T17:50:52.192Z,101138.25
2023-03-29T17:53:19.149Z,101148.63
2023-03-29T17:55:46.113Z,101148.63
2023-03-29T17:58:13.530Z,101141.41
2023-03-29T18:00:40.536Z,101140.88
2023-03-29T18:03:07.498Z,101137.25
2023-03-29T18:05:35.923Z,101142.81
2023-03-29T18:08:02.984Z,101145.41
2023-03-29T18:10:29.992Z,101138.09
2023-03-29T18:12:58.790Z,101134.94
2023-03-29T18:15:25.709Z,101128.03
2023-03-29T18:17:52.779Z,101121.59
2023-03-29T18:20:20.894Z,101121.44
2023-03-29T18:22:48.025Z,101118.25
2023-03-29T18:25:15.272Z,101123.22
2023-03-29T18:27:42.033Z,101123.22
2023-03-29T18:30:09.565Z,101132.31
2023-03-29T18:32:36.786Z,101104.84
2023-03-29T18:35:04.183Z,101137.75
2023-03-29T18:37:31.224Z,101138.91
2023-03-29T18:39:58.495Z,101140.69
2023-03-29T18:42:25.754Z,101133.69
2023-03-29T18:44:52.853Z,101147.75
2023-03-29T18:47:19.968Z,101150.81
2023-03-29T18:49:47.417Z,101149.81
2023-03-29T18:52:14.311Z,101141.25
2023-03-29T18:54:41.925Z,101137.44
2023-03-29T18:57:08.993Z,101133.22
2023-03-29T18:59:39.475Z,101133.75
2023-03-29T19:02:06.794Z,101139.09
2023-03-29T19:04:33.835Z,101139.94
2023-03-29T19:07:01.991Z,101134.25
2023-03-29T19:09:28.905Z,101130.75
2023-03-29T19:11:55.790Z,101117.81
2023-03-29T19:14:25.404Z,101136.47
2023-03-29T19:16:52.836Z,101135.91
2023-03-29T19:19:20.183Z,101135.72
2023-03-29T19:21:50.287Z,101132.13
2023-03-29T19:24:17.589Z,101131.00
2023-03-29T19:26:44.986Z,101128.94
2023-03-29T19:29:12.076Z,101131.50
2023-03-29T19:31:39.201Z,101126.16
2023-03-29T19:34:07.309Z,101126.56
2023-03-29T19:36:34.344Z,101125.34
2023-03-29T19:39:01.379Z,101119.69
2023-03-29T19:41:28.674Z,101128.13
2023-03-29T19:43:55.863Z,101126.06
2023-03-29T19:46:23.102Z,101114.81
2023-03-29T19:48:52.044Z,101111.94
2023-03-29T19:51:19.855Z,101109.69
2023-03-29T19:53:47.444Z,101096.28
2023-03-29T19:56:17.519Z,101116.91
2023-03-29T19:58:44.428Z,101106.59
2023-03-29T20:01:11.365Z,101107.91
2023-03-29T20:03:39.072Z,101076.22
2023-03-29T20:06:08.504Z,101084.25
2023-03-29T20:08:39.005Z,101082.09
2023-03-29T20:11:10.584Z,101076.91
2023-03-29T20:13:41.682Z,101068.28
2023-03-29T20:16:11.061Z,101071.06
2023-03-29T20:18:38.587Z,101069.38
2023-03-29T20:21:08.010Z,101066.09
2023-03-29T20:23:35.747Z,101069.81
2023-03-29T20:26:03.322Z,101063.31
2023-03-29T20:28:30.283Z,101068.06
2023-03-29T20:30:57.080Z,101063.00
2023-03-29T20:33:24.071Z,101063.22
2023-03-29T20:35:51.142Z,101050.56
2023-03-29T20:38:18.015Z,101048.41
2023-03-29T20:40:45.305Z,101016.59
2023-03-29T20:43:13.779Z,101048.59
2023-03-29T20:45:52.723Z,101042.84
2023-03-29T20:48:26.784Z,101040.16
2023-03-29T20:50:54.514Z,101029.03
2023-03-29T20:53:21.583Z,101029.44
2023-03-29T20:55:48.614Z,101020.19
2023-03-29T20:58:16.096Z,101022.50
2023-03-29T21:00:44.072Z,101011.72
2023-03-29T21:03:13.125Z,101024.78
2023-03-29T21:05:40.325Z,101015.53
2023-03-29T21:08:08.634Z,101017.09
2023-03-29T21:10:36.646Z,101009.56
2023-03-29T21:13:03.836Z,101024.53
2023-03-29T21:15:31.265Z,101027.50
2023-03-29T21:17:58.752Z,101022.16
2023-03-29T21:20:27.843Z,101012.28
2023-03-29T21:22:54.575Z,101004.75
2023-03-29T21:25:21.836Z,100998.91
2023-03-29T21:27:49.701Z,100996.53
2023-03-29T21:30:16.665Z,100999.00
2023-03-29T21:32:43.619Z,100995.00
2023-03-29T21:35:13.949Z,100996.84
2023-03-29T21:37:40.857Z,101006.94
2023-03-29T21:40:09.513Z,101006.28
2023-03-29T21:42:39.638Z,101000.53
2023-03-29T21:45:07.247Z,100983.16
2023-03-29T21:47:34.306Z,100975.63
2023-03-29T21:50:01.402Z,100968.25
2023-03-29T21:52:28.506Z,100954.94
2023-03-29T21:54:55.461Z,100958.44
2023-03-29T21:57:22.535Z,100936.72
2023-03-29T21:59:49.281Z,100946.38
2023-03-29T22:02:15.984Z,100950.38
2023-03-29T22:04:42.689Z,100950.63
2023-03-29T22:07:10.782Z,100940.22
2023-03-29T22:09:37.855Z,100941.69
2023-03-29T22:12:04.942Z,100916.97
2023-03-29T22:14:35.379Z,100939.47
2023-03-29T22:17:08.105Z,100935.56
2023-03-29T22:19:39.890Z,100918.81
2023-03-29T22:22:14.116Z,100928.88
2023-03-29T22:24:42.369Z,100924.53
2023-03-29T22:27:10.665Z,100923.00
2023-03-29T22:29:37.723Z,100909.25
2023-03-29T22:32:05.131Z,100905.41
2023-03-29T22:34:32.680Z,100903.47
2023-03-29T22:36:59.604Z,100898.63
2023-03-29T22:39:27.036Z,100891.25
2023-03-29T22:41:53.834Z,100890.31
2023-03-29T22:44:20.683Z,100888.56
2023-03-29T22:46:47.674Z,100886.03
2023-03-29T22:49:15.012Z,100873.19
2023-03-29T22:51:42.083Z,100872.44
2023-03-29T22:54:08.795Z,100871.78
2023-03-29T22:56:35.859Z,100865.84
2023-03-29T22:59:02.762Z,100860.75
2023-03-29T23:01:29.558Z,100852.66
2023-03-29T23:03:56.684Z,100850.19
2023-03-29T23:06:23.598Z,100843.44
2023-03-29T23:08:50.694Z,100834.75
2023-03-29T23:11:17.694Z,100840.53
2023-03-29T23:13:48.979Z,100826.56
2023-03-29T23:16:16.789Z,100823.03
2023-03-29T23:18:43.779Z,100805.53
2023-03-29T23:21:10.823Z,100817.00
2023-03-29T23:23:37.701Z,100820.03
2023-03-29T23:26:05.533Z,100803.00
2023-03-29T23:28:34.795Z,100799.91
2023-03-29T23:31:10.312Z,100796.88
2023-03-29T23:33:41.390Z,100785.38
2023-03-29T23:36:17.673Z,100776.59
2023-03-29T23:38:47.107Z,100784.03
2023-03-29T23:41:14.936Z,100781.00
2023-03-29T23:43:43.637Z,100778.03
2023-03-29T23:46:16.985Z,100779.34
2023-03-29T23:48:49.275Z,100778.66
2023-03-29T23:51:19.044Z,100778.63
2023-03-29T23:53:46.768Z,100746.88
2023-03-29T23:56:13.684Z,100762.31
2023-03-29T23:58:40.574Z,100756.22
